JAL127 RJTT-RJOO
Flight info
| Callsign | JAL127 |
|---|---|
| Flight time | 0h 47m |
| Altitude | 28000 |
| Route | LAXAS Y56 TOHME Y54 KOHWA Y546 AGPUK MIRAI ABENO IKOMA |
| Aircraft | B763/H-SDE3FGHIM3RWXY/LB1 |
Departure
| Time | 2026-05-06 07:33 |
|---|---|
| Airport | Tokyo Haneda International Airport (RJTT) |
Arrival
| Time | 2026-05-06 08:20 |
|---|---|
| Airport | Osaka Itami International Airport (RJOO) |
| Time | Latitude | Longitude | Altitude | Speed | Heading |
|---|---|---|---|---|---|
| 2026-05-06 07:07 | 35.54888 | 139.78242 | 33 ft | 0 kts | 102° |
| 2026-05-06 07:22 | 35.54891 | 139.78227 | 32 ft | 2 kts | 102° |
| 2026-05-06 07:23 | 35.54894 | 139.78210 | 32 ft | 2 kts | 103° |
| 2026-05-06 07:23 | 35.54896 | 139.78198 | 31 ft | 1 kts | 103° |
| 2026-05-06 07:23 | 35.54898 | 139.78180 | 31 ft | 2 kts | 87° |
| 2026-05-06 07:23 | 35.54895 | 139.78163 | 30 ft | 2 kts | 71° |
| 2026-05-06 07:24 | 35.54889 | 139.78146 | 30 ft | 2 kts | 56° |
| 2026-05-06 07:24 | 35.54879 | 139.78133 | 29 ft | 2 kts | 40° |
| 2026-05-06 07:24 | 35.54867 | 139.78124 | 28 ft | 2 kts | 24° |
| 2026-05-06 07:24 | 35.54853 | 139.78117 | 28 ft | 2 kts | 9° |
| 2026-05-06 07:25 | 35.54839 | 139.78117 | 27 ft | 2 kts | 353° |
| 2026-05-06 07:25 | 35.54824 | 139.78120 | 27 ft | 2 kts | 338° |
| 2026-05-06 07:25 | 35.54817 | 139.78125 | 26 ft | 0 kts | 329° |
| 2026-05-06 07:27 | 35.54831 | 139.78116 | 27 ft | 5 kts | 331° |
| 2026-05-06 07:28 | 35.54887 | 139.78078 | 28 ft | 10 kts | 331° |
| 2026-05-06 07:28 | 35.54956 | 139.78029 | 30 ft | 11 kts | 330° |
| 2026-05-06 07:28 | 35.55152 | 139.77890 | 34 ft | 21 kts | 329° |
| 2026-05-06 07:29 | 35.55298 | 139.77786 | 37 ft | 25 kts | 330° |
| 2026-05-06 07:29 | 35.55460 | 139.77670 | 37 ft | 27 kts | 330° |
| 2026-05-06 07:29 | 35.55629 | 139.77551 | 35 ft | 24 kts | 330° |
| 2026-05-06 07:29 | 35.55775 | 139.77446 | 32 ft | 13 kts | 329° |
| 2026-05-06 07:30 | 35.55869 | 139.77380 | 30 ft | 17 kts | 330° |
| 2026-05-06 07:30 | 35.55996 | 139.77344 | 28 ft | 20 kts | 18° |
| 2026-05-06 07:30 | 35.56129 | 139.77449 | 25 ft | 24 kts | 35° |
| 2026-05-06 07:30 | 35.56278 | 139.77577 | 23 ft | 27 kts | 36° |
| 2026-05-06 07:31 | 35.56419 | 139.77702 | 23 ft | 11 kts | 34° |
| 2026-05-06 07:31 | 35.56494 | 139.77765 | 21 ft | 15 kts | 34° |
| 2026-05-06 07:31 | 35.56578 | 139.77774 | 19 ft | 12 kts | 319° |
| 2026-05-06 07:31 | 35.56633 | 139.77681 | 19 ft | 14 kts | 289° |
| 2026-05-06 07:32 | 35.56618 | 139.77605 | 18 ft | 10 kts | 226° |
| 2026-05-06 07:32 | 35.56570 | 139.77559 | 18 ft | 0 kts | 215° |
| 2026-05-06 07:32 | 35.56545 | 139.77536 | 18 ft | 22 kts | 215° |
| 2026-05-06 07:32 | 35.56207 | 139.77246 | 22 ft | 94 kts | 215° |
| 2026-05-06 07:33 | 35.55516 | 139.76654 | 97 ft | 141 kts | 214° |
| 2026-05-06 07:33 | 35.54688 | 139.75941 | 573 ft | 147 kts | 211° |
| 2026-05-06 07:33 | 35.53702 | 139.75670 | 1145 ft | 150 kts | 176° |
| 2026-05-06 07:33 | 35.52602 | 139.75732 | 1499 ft | 172 kts | 178° |
| 2026-05-06 07:34 | 35.51307 | 139.75780 | 1849 ft | 197 kts | 177° |
| 2026-05-06 07:34 | 35.49844 | 139.75854 | 2294 ft | 219 kts | 177° |
| 2026-05-06 07:34 | 35.48304 | 139.75941 | 3054 ft | 228 kts | 178° |
| 2026-05-06 07:34 | 35.46665 | 139.76039 | 3704 ft | 245 kts | 178° |
| 2026-05-06 07:35 | 35.44907 | 139.76144 | 4730 ft | 249 kts | 179° |
| 2026-05-06 07:35 | 35.43136 | 139.76158 | 5592 ft | 259 kts | 181° |
| 2026-05-06 07:35 | 35.41277 | 139.76160 | 6558 ft | 265 kts | 181° |
| 2026-05-06 07:35 | 35.39458 | 139.76163 | 7552 ft | 267 kts | 181° |
| 2026-05-06 07:36 | 35.37553 | 139.76167 | 8462 ft | 274 kts | 181° |
| 2026-05-06 07:36 | 35.35615 | 139.76210 | 9485 ft | 276 kts | 176° |
| 2026-05-06 07:36 | 35.33705 | 139.76749 | 10322 ft | 286 kts | 166° |
| 2026-05-06 07:36 | 35.31687 | 139.77449 | 10663 ft | 315 kts | 168° |
| 2026-05-06 07:37 | 35.29423 | 139.78229 | 10919 ft | 347 kts | 167° |
| 2026-05-06 07:37 | 35.26994 | 139.79082 | 11568 ft | 364 kts | 167° |
| 2026-05-06 07:37 | 35.24542 | 139.79820 | 12529 ft | 366 kts | 176° |
| 2026-05-06 07:37 | 35.22008 | 139.79808 | 13440 ft | 363 kts | 194° |
| 2026-05-06 07:38 | 35.19511 | 139.78870 | 14342 ft | 362 kts | 210° |
| 2026-05-06 07:38 | 35.17369 | 139.77084 | 15264 ft | 359 kts | 226° |
| 2026-05-06 07:38 | 35.15624 | 139.74797 | 16149 ft | 360 kts | 230° |
| 2026-05-06 07:38 | 35.13874 | 139.72516 | 17026 ft | 362 kts | 230° |
| 2026-05-06 07:39 | 35.12150 | 139.70146 | 17947 ft | 364 kts | 235° |
| 2026-05-06 07:39 | 35.10753 | 139.67400 | 18933 ft | 362 kts | 246° |
| 2026-05-06 07:39 | 35.09916 | 139.64430 | 19933 ft | 360 kts | 256° |
| 2026-05-06 07:39 | 35.09360 | 139.61290 | 20707 ft | 363 kts | 256° |
| 2026-05-06 07:40 | 35.08808 | 139.58159 | 21452 ft | 366 kts | 257° |
| 2026-05-06 07:40 | 35.08273 | 139.54993 | 22232 ft | 366 kts | 256° |
| 2026-05-06 07:40 | 35.07752 | 139.51901 | 22849 ft | 369 kts | 256° |
| 2026-05-06 07:40 | 35.07230 | 139.48782 | 23565 ft | 371 kts | 256° |
| 2026-05-06 07:41 | 35.06719 | 139.45714 | 24413 ft | 372 kts | 256° |
| 2026-05-06 07:41 | 35.06212 | 139.42664 | 25578 ft | 364 kts | 256° |
| 2026-05-06 07:41 | 35.05710 | 139.39645 | 26461 ft | 362 kts | 255° |
| 2026-05-06 07:41 | 35.05209 | 139.36639 | 27436 ft | 357 kts | 257° |
| 2026-05-06 07:42 | 35.04718 | 139.33688 | 28116 ft | 345 kts | 255° |
| 2026-05-06 07:42 | 35.04238 | 139.30820 | 28121 ft | 346 kts | 256° |
| 2026-05-06 07:42 | 35.03271 | 139.25041 | 28127 ft | 348 kts | 256° |
| 2026-05-06 07:43 | 35.02299 | 139.19253 | 28129 ft | 351 kts | 256° |
| 2026-05-06 07:43 | 35.01325 | 139.13467 | 28129 ft | 348 kts | 255° |
| 2026-05-06 07:44 | 35.00348 | 139.07683 | 28129 ft | 350 kts | 255° |
| 2026-05-06 07:44 | 34.99362 | 139.01871 | 28137 ft | 350 kts | 255° |
| 2026-05-06 07:45 | 34.98687 | 138.96024 | 28132 ft | 352 kts | 261° |
| 2026-05-06 07:45 | 34.98360 | 138.90059 | 28126 ft | 352 kts | 262° |
| 2026-05-06 07:46 | 34.98042 | 138.84059 | 28132 ft | 355 kts | 262° |
| 2026-05-06 07:46 | 34.97726 | 138.78088 | 28122 ft | 350 kts | 262° |
| 2026-05-06 07:47 | 34.97406 | 138.72116 | 28115 ft | 352 kts | 261° |
| 2026-05-06 07:47 | 34.97086 | 138.66154 | 28116 ft | 355 kts | 261° |
| 2026-05-06 07:48 | 34.96765 | 138.60193 | 28120 ft | 351 kts | 261° |
| 2026-05-06 07:48 | 34.96437 | 138.54222 | 28120 ft | 353 kts | 261° |
| 2026-05-06 07:49 | 34.96108 | 138.48273 | 28118 ft | 352 kts | 261° |
| 2026-05-06 07:49 | 34.95779 | 138.42358 | 28128 ft | 351 kts | 262° |
| 2026-05-06 07:50 | 34.95448 | 138.36435 | 28123 ft | 352 kts | 261° |
| 2026-05-06 07:50 | 34.95110 | 138.30481 | 28140 ft | 353 kts | 261° |
| 2026-05-06 07:51 | 34.94769 | 138.24506 | 28142 ft | 352 kts | 261° |
| 2026-05-06 07:51 | 34.94429 | 138.18585 | 28138 ft | 352 kts | 260° |
| 2026-05-06 07:52 | 34.94083 | 138.12654 | 28142 ft | 350 kts | 261° |
| 2026-05-06 07:52 | 34.93734 | 138.06723 | 28140 ft | 350 kts | 261° |
| 2026-05-06 07:53 | 34.93388 | 138.00842 | 28136 ft | 350 kts | 261° |
| 2026-05-06 07:53 | 34.93035 | 137.94922 | 28129 ft | 351 kts | 261° |
| 2026-05-06 07:54 | 34.92677 | 137.88972 | 28131 ft | 351 kts | 261° |
| 2026-05-06 07:54 | 34.92319 | 137.83063 | 28136 ft | 351 kts | 261° |
| 2026-05-06 07:55 | 34.91960 | 137.77164 | 28126 ft | 351 kts | 260° |
| 2026-05-06 07:55 | 34.91595 | 137.71249 | 28126 ft | 350 kts | 261° |
| 2026-05-06 07:56 | 34.90682 | 137.65500 | 28144 ft | 345 kts | 248° |
| 2026-05-06 07:56 | 34.89074 | 137.60007 | 28142 ft | 345 kts | 248° |
| 2026-05-06 07:57 | 34.87445 | 137.54526 | 28140 ft | 345 kts | 248° |
| 2026-05-06 07:57 | 34.85800 | 137.49026 | 28132 ft | 345 kts | 249° |
| 2026-05-06 07:58 | 34.84979 | 137.46251 | 27987 ft | 349 kts | 249° |
| 2026-05-06 07:58 | 34.84182 | 137.43448 | 27619 ft | 354 kts | 249° |
| 2026-05-06 07:58 | 34.83369 | 137.40601 | 27260 ft | 356 kts | 249° |
| 2026-05-06 07:58 | 34.82546 | 137.37720 | 26902 ft | 355 kts | 249° |
| 2026-05-06 07:59 | 34.81707 | 137.34788 | 26524 ft | 355 kts | 249° |
| 2026-05-06 07:59 | 34.80873 | 137.31880 | 26178 ft | 357 kts | 249° |
| 2026-05-06 07:59 | 34.80059 | 137.29033 | 25834 ft | 359 kts | 248° |
| 2026-05-06 07:59 | 34.79195 | 137.26033 | 25473 ft | 360 kts | 248° |
| 2026-05-06 08:00 | 34.78334 | 137.23036 | 25096 ft | 357 kts | 249° |
| 2026-05-06 08:00 | 34.77502 | 137.20149 | 24718 ft | 354 kts | 248° |
| 2026-05-06 08:00 | 34.76677 | 137.17287 | 24353 ft | 352 kts | 248° |
| 2026-05-06 08:00 | 34.75835 | 137.14371 | 23979 ft | 351 kts | 248° |
| 2026-05-06 08:01 | 34.74982 | 137.11410 | 23602 ft | 349 kts | 248° |
| 2026-05-06 08:01 | 34.74149 | 137.08531 | 23230 ft | 347 kts | 249° |
| 2026-05-06 08:01 | 34.73335 | 137.05721 | 22862 ft | 346 kts | 249° |
| 2026-05-06 08:01 | 34.72490 | 137.02795 | 22493 ft | 346 kts | 248° |
| 2026-05-06 08:02 | 34.71671 | 136.99979 | 22120 ft | 345 kts | 248° |
| 2026-05-06 08:02 | 34.70861 | 136.97201 | 21733 ft | 346 kts | 249° |
| 2026-05-06 08:02 | 34.70055 | 136.94415 | 21369 ft | 345 kts | 249° |
| 2026-05-06 08:02 | 34.69246 | 136.91637 | 21034 ft | 345 kts | 249° |
| 2026-05-06 08:03 | 34.68403 | 136.88744 | 20683 ft | 345 kts | 249° |
| 2026-05-06 08:03 | 34.67590 | 136.85950 | 20325 ft | 345 kts | 249° |
| 2026-05-06 08:03 | 34.66755 | 136.83093 | 19957 ft | 347 kts | 250° |
| 2026-05-06 08:03 | 34.65913 | 136.80206 | 19594 ft | 348 kts | 250° |
| 2026-05-06 08:04 | 34.65052 | 136.77267 | 19215 ft | 347 kts | 251° |
| 2026-05-06 08:04 | 34.64222 | 136.74428 | 18838 ft | 347 kts | 251° |
| 2026-05-06 08:04 | 34.63390 | 136.71588 | 18465 ft | 347 kts | 252° |
| 2026-05-06 08:04 | 34.62569 | 136.68784 | 18081 ft | 348 kts | 251° |
| 2026-05-06 08:05 | 34.61727 | 136.65915 | 17695 ft | 353 kts | 252° |
| 2026-05-06 08:05 | 34.60901 | 136.63104 | 17322 ft | 349 kts | 252° |
| 2026-05-06 08:05 | 34.60081 | 136.60310 | 16927 ft | 346 kts | 251° |
| 2026-05-06 08:05 | 34.59243 | 136.57465 | 16544 ft | 346 kts | 251° |
| 2026-05-06 08:06 | 34.58425 | 136.54689 | 16164 ft | 347 kts | 251° |
| 2026-05-06 08:06 | 34.57619 | 136.51956 | 15794 ft | 347 kts | 251° |
| 2026-05-06 08:06 | 34.56804 | 136.49194 | 15427 ft | 343 kts | 251° |
| 2026-05-06 08:06 | 34.55973 | 136.46384 | 15048 ft | 345 kts | 251° |
| 2026-05-06 08:07 | 34.55169 | 136.43668 | 14688 ft | 346 kts | 251° |
| 2026-05-06 08:07 | 34.54368 | 136.40959 | 14328 ft | 342 kts | 251° |
| 2026-05-06 08:07 | 34.53543 | 136.38178 | 13868 ft | 343 kts | 250° |
| 2026-05-06 08:07 | 34.52728 | 136.35425 | 13480 ft | 343 kts | 251° |
| 2026-05-06 08:08 | 34.51917 | 136.32680 | 13104 ft | 341 kts | 251° |
| 2026-05-06 08:08 | 34.51407 | 136.29894 | 12677 ft | 339 kts | 261° |
| 2026-05-06 08:08 | 34.51042 | 136.27045 | 12072 ft | 341 kts | 259° |
| 2026-05-06 08:08 | 34.50667 | 136.24173 | 11531 ft | 337 kts | 260° |
| 2026-05-06 08:09 | 34.50309 | 136.21440 | 11513 ft | 318 kts | 260° |
| 2026-05-06 08:09 | 34.49971 | 136.18846 | 11483 ft | 301 kts | 260° |
| 2026-05-06 08:09 | 34.49647 | 136.16363 | 11459 ft | 286 kts | 260° |
| 2026-05-06 08:09 | 34.49334 | 136.13972 | 11406 ft | 274 kts | 260° |
| 2026-05-06 08:10 | 34.49032 | 136.11667 | 11101 ft | 273 kts | 260° |
| 2026-05-06 08:10 | 34.48742 | 136.09402 | 10861 ft | 268 kts | 263° |
| 2026-05-06 08:10 | 34.48916 | 136.07106 | 10494 ft | 272 kts | 284° |
| 2026-05-06 08:10 | 34.49529 | 136.04866 | 10142 ft | 273 kts | 285° |
| 2026-05-06 08:11 | 34.50121 | 136.02693 | 9860 ft | 271 kts | 285° |
| 2026-05-06 08:11 | 34.50719 | 136.00534 | 9525 ft | 271 kts | 286° |
| 2026-05-06 08:11 | 34.51326 | 135.98361 | 9208 ft | 270 kts | 287° |
| 2026-05-06 08:11 | 34.51928 | 135.96213 | 8944 ft | 268 kts | 286° |
| 2026-05-06 08:12 | 34.52531 | 135.94069 | 8620 ft | 268 kts | 287° |
| 2026-05-06 08:12 | 34.53132 | 135.91933 | 8364 ft | 265 kts | 287° |
| 2026-05-06 08:12 | 34.53734 | 135.89789 | 8018 ft | 266 kts | 287° |
| 2026-05-06 08:12 | 34.54337 | 135.87616 | 7754 ft | 263 kts | 286° |
| 2026-05-06 08:13 | 34.54921 | 135.85506 | 7400 ft | 265 kts | 286° |
| 2026-05-06 08:13 | 34.55500 | 135.83414 | 7149 ft | 262 kts | 286° |
| 2026-05-06 08:13 | 34.56088 | 135.81293 | 6837 ft | 262 kts | 287° |
| 2026-05-06 08:13 | 34.56673 | 135.79173 | 6547 ft | 261 kts | 287° |
| 2026-05-06 08:14 | 34.57247 | 135.77098 | 6248 ft | 261 kts | 287° |
| 2026-05-06 08:14 | 34.57828 | 135.74992 | 5954 ft | 261 kts | 287° |
| 2026-05-06 08:14 | 34.58406 | 135.72896 | 5691 ft | 260 kts | 287° |
| 2026-05-06 08:14 | 34.58980 | 135.70815 | 5387 ft | 261 kts | 287° |
| 2026-05-06 08:15 | 34.59553 | 135.68736 | 5094 ft | 261 kts | 286° |
| 2026-05-06 08:15 | 34.60133 | 135.66646 | 4812 ft | 261 kts | 289° |
| 2026-05-06 08:15 | 34.61052 | 135.64777 | 4644 ft | 257 kts | 307° |
| 2026-05-06 08:15 | 34.62276 | 135.63197 | 4300 ft | 261 kts | 315° |
| 2026-05-06 08:16 | 34.63554 | 135.61653 | 3923 ft | 253 kts | 315° |
| 2026-05-06 08:16 | 34.64759 | 135.60191 | 3551 ft | 239 kts | 315° |
| 2026-05-06 08:16 | 34.65916 | 135.58797 | 3231 ft | 225 kts | 316° |
| 2026-05-06 08:16 | 34.66985 | 135.57510 | 2977 ft | 209 kts | 316° |
| 2026-05-06 08:17 | 34.67983 | 135.56308 | 2664 ft | 193 kts | 316° |
| 2026-05-06 08:17 | 34.68893 | 135.55211 | 2409 ft | 175 kts | 316° |
| 2026-05-06 08:17 | 34.69714 | 135.54224 | 2132 ft | 162 kts | 316° |
| 2026-05-06 08:17 | 34.70495 | 135.53284 | 1880 ft | 152 kts | 315° |
| 2026-05-06 08:18 | 34.71235 | 135.52391 | 1676 ft | 148 kts | 315° |
| 2026-05-06 08:18 | 34.71959 | 135.51518 | 1499 ft | 147 kts | 315° |
| 2026-05-06 08:18 | 34.72691 | 135.50639 | 1310 ft | 148 kts | 316° |
| 2026-05-06 08:18 | 34.73412 | 135.49750 | 1087 ft | 147 kts | 314° |
| 2026-05-06 08:19 | 34.74120 | 135.48874 | 863 ft | 144 kts | 316° |
| 2026-05-06 08:19 | 34.74834 | 135.48035 | 673 ft | 141 kts | 317° |
| 2026-05-06 08:19 | 34.75541 | 135.47203 | 498 ft | 144 kts | 315° |
| 2026-05-06 08:19 | 34.76246 | 135.46362 | 372 ft | 139 kts | 317° |
| 2026-05-06 08:20 | 34.76937 | 135.45538 | 184 ft | 139 kts | 315° |
| 2026-05-06 08:20 | 34.77626 | 135.44694 | 64 ft | 135 kts | 315° |
| 2026-05-06 08:20 | 34.78192 | 135.44012 | 63 ft | 86 kts | 315° |
| 2026-05-06 08:20 | 34.78482 | 135.43660 | 64 ft | 38 kts | 316° |
| 2026-05-06 08:21 | 34.78686 | 135.43507 | 64 ft | 33 kts | 338° |
| 2026-05-06 08:21 | 34.78810 | 135.43446 | 64 ft | 15 kts | 339° |
| 2026-05-06 08:21 | 34.78927 | 135.43425 | 64 ft | 18 kts | 6° |
| 2026-05-06 08:21 | 34.79042 | 135.43494 | 64 ft | 19 kts | 52° |
| 2026-05-06 08:22 | 34.79063 | 135.43617 | 64 ft | 15 kts | 93° |
| 2026-05-06 08:22 | 34.79059 | 135.43716 | 64 ft | 4 kts | 93° |
| 2026-05-06 08:22 | 34.79043 | 135.43758 | 64 ft | 7 kts | 128° |
| 2026-05-06 08:22 | 34.79001 | 135.43817 | 64 ft | 10 kts | 135° |
| 2026-05-06 08:23 | 34.78981 | 135.43895 | 64 ft | 11 kts | 70° |
| 2026-05-06 08:23 | 34.79006 | 135.43948 | 64 ft | 0 kts | 57° |